createdAt,value
2019-02-24T00:01:54.594Z,30.20
2019-02-24T00:04:44.692Z,31.13
2019-02-24T00:08:11.075Z,32.37
2019-02-24T00:10:29.861Z,32.50
2019-02-24T00:13:02.621Z,31.20
2019-02-24T00:15:44.598Z,28.93
2019-02-24T00:18:56.149Z,31.90
2019-02-24T00:21:31.247Z,30.43
2019-02-24T00:24:13.153Z,32.80
2019-02-24T00:27:11.861Z,29.73
2019-02-24T00:29:56.135Z,30.60
2019-02-24T00:32:31.525Z,30.67
2019-02-24T00:35:06.397Z,29.20
2019-02-24T00:37:42.794Z,27.27
2019-02-24T00:40:18.857Z,28.23
2019-02-24T00:43:02.096Z,27.97
2019-02-24T00:45:38.296Z,30.63
2019-02-24T00:48:26.978Z,27.77
2019-02-24T00:50:58.715Z,25.63
2019-02-24T00:53:42.269Z,27.00
2019-02-24T00:56:11.167Z,26.23
2019-02-24T00:58:57.214Z,28.23
2019-02-24T01:01:54.106Z,32.63
2019-02-24T01:04:31.417Z,28.80
2019-02-24T01:07:06.438Z,30.47
2019-02-24T01:09:41.681Z,32.43
2019-02-24T01:12:16.714Z,31.30
2019-02-24T01:14:49.634Z,34.13
2019-02-24T01:17:30.447Z,37.30
2019-02-24T01:20:14.429Z,31.13
2019-02-24T01:22:53.617Z,33.23
2019-02-24T01:25:43.938Z,33.90
2019-02-24T01:28:25.665Z,37.43
2019-02-24T01:31:17.061Z,37.57
2019-02-24T01:33:52.655Z,40.90
2019-02-24T01:36:25.566Z,42.83
2019-02-24T01:38:57.964Z,40.17
2019-02-24T01:41:32.606Z,41.67
2019-02-24T01:44:08.063Z,39.93
2019-02-24T01:46:45.034Z,36.97
2019-02-24T01:49:20.436Z,41.93
2019-02-24T01:52:15.684Z,38.27
2019-02-24T01:54:47.992Z,37.13
2019-02-24T01:57:25.533Z,36.43
2019-02-24T01:59:55.548Z,44.57
2019-02-24T02:02:27.675Z,37.80
2019-02-24T02:04:59.677Z,36.17
2019-02-24T02:07:39.107Z,30.67
2019-02-24T02:10:21.927Z,37.57
2019-02-24T02:13:01.447Z,39.20
2019-02-24T02:15:37.212Z,36.77
2019-02-24T02:18:08.165Z,35.50
2019-02-24T02:20:46.366Z,41.80
2019-02-24T02:23:21.482Z,42.30
2019-02-24T02:25:53.417Z,36.90
2019-02-24T02:28:30.416Z,38.00
2019-02-24T02:31:08.646Z,34.70
2019-02-24T02:33:43.326Z,33.97
2019-02-24T02:36:18.233Z,37.87
2019-02-24T02:38:55.175Z,37.17
2019-02-24T02:41:27.842Z,39.27
2019-02-24T02:44:02.301Z,32.47
2019-02-24T02:46:43.652Z,35.73
2019-02-24T02:49:15.442Z,41.07
2019-02-24T02:51:55.574Z,41.20
2019-02-24T02:54:41.265Z,37.87
2019-02-24T02:57:18.263Z,43.17
2019-02-24T02:59:53.995Z,37.10
2019-02-24T03:02:30.703Z,34.67
2019-02-24T03:05:03.429Z,39.50
2019-02-24T03:07:51.462Z,34.00
2019-02-24T03:10:28.056Z,43.77
2019-02-24T03:12:56.187Z,35.53
2019-02-24T03:15:26.714Z,37.43
2019-02-24T03:17:57.281Z,44.40
2019-02-24T03:20:28.237Z,41.50
2019-02-24T03:23:10.477Z,37.77
2019-02-24T03:25:45.664Z,39.00
2019-02-24T03:28:22.633Z,38.67
2019-02-24T03:31:01.863Z,46.27
2019-02-24T03:33:32.676Z,43.13
2019-02-24T03:36:21.587Z,42.73
2019-02-24T03:38:55.025Z,41.80
2019-02-24T03:41:28.471Z,47.83
2019-02-24T03:44:15.486Z,47.97
2019-02-24T03:46:48.285Z,45.80
2019-02-24T03:49:21.409Z,50.20
2019-02-24T03:52:08.075Z,46.23
2019-02-24T03:54:41.729Z,51.17
2019-02-24T03:57:12.303Z,49.07
2019-02-24T03:59:48.201Z,55.73
2019-02-24T04:02:18.815Z,49.67
2019-02-24T04:04:49.334Z,51.40
2019-02-24T04:07:39.125Z,51.00
2019-02-24T04:10:17.269Z,47.93
2019-02-24T04:13:55.076Z,48.70
2019-02-24T04:15:26.659Z,48.80
2019-02-24T04:17:57.299Z,54.73
2019-02-24T04:20:27.939Z,55.60
2019-02-24T04:23:08.580Z,53.90
2019-02-24T04:25:39.105Z,55.53
2019-02-24T04:28:09.955Z,61.57
2019-02-24T04:30:42.597Z,58.63
2019-02-24T04:33:18.091Z,58.17
2019-02-24T04:35:48.925Z,56.97
2019-02-24T04:38:20.000Z,57.50
2019-02-24T04:40:56.480Z,55.90
2019-02-24T04:43:31.349Z,61.27
2019-02-24T04:46:06.080Z,60.20
2019-02-24T04:48:36.597Z,60.03
2019-02-24T04:51:07.069Z,64.17
2019-02-24T04:53:37.749Z,57.73
2019-02-24T04:56:10.314Z,64.00
2019-02-24T04:58:40.940Z,61.57
2019-02-24T05:01:29.631Z,58.73
2019-02-24T05:04:01.952Z,63.00
2019-02-24T05:06:38.556Z,66.00
2019-02-24T05:09:09.013Z,69.77
2019-02-24T05:11:39.646Z,68.10
2019-02-24T05:14:10.272Z,64.93
2019-02-24T05:16:49.711Z,62.40
2019-02-24T05:19:18.700Z,67.43
2019-02-24T05:21:52.349Z,66.17
2019-02-24T05:24:23.064Z,68.47
2019-02-24T05:26:58.039Z,66.77
2019-02-24T05:29:30.811Z,66.00
2019-02-24T05:32:05.239Z,62.57
2019-02-24T05:34:37.465Z,74.17
2019-02-24T05:37:12.758Z,62.50
2019-02-24T05:40:11.179Z,64.47
2019-02-24T05:42:51.046Z,64.27
2019-02-24T05:45:22.912Z,70.33
2019-02-24T05:48:04.690Z,70.63
2019-02-24T05:50:36.666Z,73.40
2019-02-24T05:53:08.623Z,69.20
2019-02-24T05:55:57.552Z,74.73
2019-02-24T05:58:26.490Z,74.23
2019-02-24T06:00:58.843Z,80.17
2019-02-24T06:03:34.925Z,73.53
2019-02-24T06:06:13.121Z,79.00
2019-02-24T06:08:43.301Z,66.03
2019-02-24T06:11:15.753Z,71.03
2019-02-24T06:14:05.256Z,68.03
2019-02-24T06:16:45.291Z,77.03
2019-02-24T06:19:21.605Z,86.37
2019-02-24T06:21:56.736Z,79.10
2019-02-24T06:24:30.738Z,81.13
2019-02-24T06:27:02.831Z,80.87
2019-02-24T06:29:40.322Z,78.83
2019-02-24T06:32:10.409Z,78.03
2019-02-24T06:34:41.177Z,83.97
2019-02-24T06:37:16.374Z,75.90
2019-02-24T06:39:51.983Z,86.10
2019-02-24T06:42:37.871Z,83.00
2019-02-24T06:45:27.543Z,87.83
2019-02-24T06:47:58.393Z,89.43
2019-02-24T06:50:58.539Z,84.23
2019-02-24T06:53:31.492Z,86.90
2019-02-24T06:56:02.028Z,91.63
2019-02-24T06:58:38.395Z,82.00
2019-02-24T07:01:12.610Z,92.17
2019-02-24T07:03:47.605Z,77.10
2019-02-24T07:06:21.375Z,88.23
2019-02-24T07:08:53.620Z,85.20
2019-02-24T07:11:43.100Z,92.33
2019-02-24T07:14:47.196Z,75.53
2019-02-24T07:18:02.393Z,83.63
2019-02-24T07:20:52.190Z,89.50
2019-02-24T07:23:44.012Z,72.40
2019-02-24T07:27:31.313Z,76.57
2019-02-24T07:30:42.118Z,77.17
2019-02-24T07:33:34.094Z,82.20
2019-02-24T07:36:29.499Z,82.37
2019-02-24T07:39:13.961Z,80.10
2019-02-24T07:42:19.910Z,74.57
2019-02-24T07:45:41.479Z,75.60
2019-02-24T07:48:45.093Z,77.70
2019-02-24T07:51:30.164Z,78.47
2019-02-24T07:54:23.401Z,82.70
2019-02-24T07:57:13.996Z,78.53
2019-02-24T08:00:15.630Z,76.07
2019-02-24T08:03:01.144Z,76.10
2019-02-24T08:05:44.354Z,78.30
2019-02-24T08:08:21.571Z,75.47
2019-02-24T08:11:22.493Z,73.27
2019-02-24T08:14:16.644Z,80.03
2019-02-24T08:16:58.398Z,77.57
2019-02-24T08:19:46.196Z,82.53
2019-02-24T08:22:21.473Z,77.63
2019-02-24T08:25:17.551Z,81.70
2019-02-24T08:27:46.482Z,75.20
2019-02-24T08:30:41.666Z,73.80
2019-02-24T08:33:13.079Z,80.30
2019-02-24T08:35:44.653Z,68.97
2019-02-24T08:38:20.326Z,74.30
2019-02-24T08:41:03.634Z,75.23
2019-02-24T08:43:49.638Z,71.93
2019-02-24T08:46:27.487Z,74.03
2019-02-24T08:49:08.257Z,62.57
2019-02-24T08:51:47.790Z,69.00
2019-02-24T08:54:36.005Z,63.10
2019-02-24T08:57:15.756Z,66.00
2019-02-24T08:59:57.772Z,61.20
2019-02-24T09:02:31.118Z,66.70
2019-02-24T09:06:02.193Z,63.37
2019-02-24T09:08:16.368Z,59.40
2019-02-24T09:10:49.155Z,58.97
2019-02-24T09:13:25.988Z,57.77
2019-02-24T09:16:11.240Z,51.53
2019-02-24T09:18:40.178Z,55.33
2019-02-24T09:21:12.881Z,58.67
2019-02-24T09:24:00.320Z,46.93
2019-02-24T09:27:10.324Z,49.67
2019-02-24T09:29:49.223Z,58.17
2019-02-24T09:35:42.632Z,53.83
2019-02-24T09:36:10.651Z,49.67
2019-02-24T09:38:54.668Z,47.23
2019-02-24T09:41:37.531Z,51.13
2019-02-24T09:44:24.465Z,53.30
2019-02-24T09:47:03.569Z,44.43
2019-02-24T09:53:01.819Z,50.63
2019-02-24T09:55:52.695Z,44.80
2019-02-24T10:01:10.551Z,52.07
2019-02-24T10:10:12.649Z,43.00
2019-02-24T10:12:32.021Z,44.53
2019-02-24T10:15:07.916Z,49.97
2019-02-24T10:17:58.222Z,47.97
2019-02-24T10:21:09.651Z,44.07
2019-02-24T10:23:54.622Z,41.43
2019-02-24T10:27:18.161Z,43.50
2019-02-24T10:29:35.761Z,41.73
2019-02-24T10:32:15.582Z,43.17
2019-02-24T10:36:02.900Z,41.53
2019-02-24T10:38:29.642Z,34.00
2019-02-24T10:41:39.431Z,37.83
2019-02-24T10:44:40.576Z,39.53
2019-02-24T10:47:29.125Z,36.70
2019-02-24T10:50:05.132Z,33.67
2019-02-24T10:53:10.106Z,32.63
2019-02-24T10:56:28.234Z,30.60
2019-02-24T11:02:33.327Z,32.27
2019-02-24T11:05:22.192Z,31.82
2019-02-24T11:08:06.031Z,26.90
2019-02-24T11:10:48.759Z,28.52
2019-02-24T11:13:45.689Z,30.82
2019-02-24T11:16:32.151Z,27.30
2019-02-24T11:19:45.649Z,27.48
2019-02-24T11:25:45.811Z,24.20
2019-02-24T11:29:49.461Z,26.07
2019-02-24T11:32:12.216Z,25.10
2019-02-24T11:35:10.091Z,23.60
2019-02-24T11:37:56.794Z,24.87
2019-02-24T11:40:19.503Z,26.95
2019-02-24T11:43:26.145Z,25.77
2019-02-24T11:45:57.763Z,22.85
2019-02-24T11:48:31.745Z,22.82
2019-02-24T11:51:26.365Z,26.12
2019-02-24T11:53:58.038Z,20.77
2019-02-24T11:56:33.104Z,20.30
2019-02-24T11:59:03.553Z,20.30
2019-02-24T12:01:47.412Z,17.52
2019-02-24T12:04:11.381Z,17.80
2019-02-24T12:06:41.782Z,20.77
2019-02-24T12:09:13.176Z,19.45
2019-02-24T12:11:44.082Z,19.92
2019-02-24T12:14:14.567Z,16.75
2019-02-24T12:16:47.123Z,18.70
2019-02-24T12:19:17.654Z,19.50
2019-02-24T12:21:57.431Z,21.73
2019-02-24T12:24:29.593Z,18.45
2019-02-24T12:27:09.831Z,17.48
2019-02-24T12:29:52.818Z,21.12
2019-02-24T12:32:23.414Z,15.53
2019-02-24T12:34:56.549Z,17.27
2019-02-24T12:37:47.906Z,17.77
2019-02-24T12:40:18.348Z,15.88
2019-02-24T12:42:49.262Z,16.10
2019-02-24T12:45:21.519Z,21.07
2019-02-24T12:47:52.079Z,14.30
2019-02-24T12:50:24.118Z,14.28
2019-02-24T12:52:55.880Z,15.08
2019-02-24T12:55:29.370Z,17.48
2019-02-24T12:58:23.101Z,16.97
2019-02-24T13:01:00.651Z,16.50
2019-02-24T13:03:59.151Z,12.82
2019-02-24T13:06:45.665Z,14.33
2019-02-24T13:09:47.394Z,13.60
2019-02-24T13:12:24.971Z,13.72
2019-02-24T13:15:37.894Z,12.28
2019-02-24T13:18:40.054Z,14.90
2019-02-24T13:21:14.346Z,16.52
2019-02-24T13:24:07.307Z,17.48
2019-02-24T13:26:58.308Z,14.03
2019-02-24T13:30:02.300Z,14.23
2019-02-24T13:32:55.673Z,10.32
2019-02-24T13:35:28.647Z,13.32
2019-02-24T13:38:08.182Z,13.32
2019-02-24T13:41:09.377Z,10.53
2019-02-24T13:43:44.333Z,12.45
2019-02-24T13:46:40.200Z,12.63
2019-02-24T13:49:13.905Z,18.87
2019-02-24T13:51:53.672Z,12.13
2019-02-24T13:54:35.065Z,12.50
2019-02-24T13:59:56.060Z,12.55
2019-02-24T14:02:51.220Z,13.75
2019-02-24T14:05:35.991Z,10.23
2019-02-24T14:08:22.950Z,13.13
2019-02-24T14:11:15.994Z,13.38
2019-02-24T14:14:00.197Z,9.35
2019-02-24T14:16:55.356Z,12.58
2019-02-24T14:19:46.352Z,10.63
2019-02-24T14:22:30.273Z,10.88
2019-02-24T14:25:07.138Z,10.75
2019-02-24T14:27:45.288Z,11.45
2019-02-24T14:30:34.885Z,12.00
2019-02-24T14:33:12.461Z,10.40
2019-02-24T14:35:55.172Z,11.63
2019-02-24T14:38:45.152Z,10.30
2019-02-24T14:41:27.306Z,13.30
2019-02-24T14:44:02.416Z,11.05
2019-02-24T14:46:36.114Z,10.78
2019-02-24T14:49:23.642Z,7.78
2019-02-24T14:52:13.191Z,11.85
2019-02-24T14:54:47.310Z,9.55
2019-02-24T14:57:21.080Z,11.30
2019-02-24T15:00:25.451Z,11.50
2019-02-24T15:03:03.521Z,11.43
2019-02-24T15:05:46.979Z,11.85
2019-02-24T15:08:22.483Z,13.88
2019-02-24T15:10:57.069Z,9.60
2019-02-24T15:14:02.712Z,12.47
2019-02-24T15:16:36.170Z,9.73
2019-02-24T15:19:26.085Z,9.53
2019-02-24T15:22:19.492Z,10.67
2019-02-24T15:25:03.913Z,17.70
2019-02-24T15:27:42.082Z,12.03
2019-02-24T15:31:33.063Z,11.27
2019-02-24T15:33:28.822Z,15.63
2019-02-24T15:36:34.542Z,10.47
2019-02-24T15:39:23.741Z,13.33
2019-02-24T15:41:59.907Z,11.07
2019-02-24T15:44:41.920Z,13.37
2019-02-24T15:47:17.189Z,11.70
2019-02-24T15:49:52.899Z,14.83
2019-02-24T15:52:26.554Z,11.67
2019-02-24T15:55:06.089Z,9.77
2019-02-24T15:57:45.149Z,12.20
2019-02-24T16:00:42.460Z,9.47
2019-02-24T16:03:30.148Z,12.53
2019-02-24T16:06:05.702Z,14.40
2019-02-24T16:09:28.854Z,10.60
2019-02-24T16:14:56.720Z,12.60
2019-02-24T16:17:40.555Z,13.03
2019-02-24T16:20:26.011Z,13.07
2019-02-24T16:23:19.464Z,11.10
2019-02-24T16:25:52.771Z,11.00
2019-02-24T16:28:27.753Z,17.37
2019-02-24T16:33:59.069Z,27.50
2019-02-24T16:36:34.520Z,17.10
2019-02-24T16:43:41.064Z,10.60
2019-02-24T16:46:52.163Z,14.03
2019-02-24T16:49:23.991Z,13.73
2019-02-24T16:51:59.263Z,13.47
2019-02-24T16:55:50.451Z,12.60
2019-02-24T16:58:50.458Z,11.97
2019-02-24T17:01:42.985Z,12.83
2019-02-24T17:04:20.946Z,14.43
2019-02-24T17:26:20.931Z,15.60
2019-02-24T17:29:02.248Z,11.53
2019-02-24T17:31:58.418Z,14.40
2019-02-24T17:34:39.575Z,10.40
2019-02-24T17:37:42.347Z,18.17
2019-02-24T17:41:03.500Z,12.50
2019-02-24T17:47:44.696Z,11.63
2019-02-24T17:50:19.535Z,12.73
2019-02-24T17:58:05.890Z,16.23
2019-02-24T17:59:59.729Z,12.27
2019-02-24T18:06:00.463Z,12.63
2019-02-24T18:09:52.919Z,11.37
2019-02-24T18:33:51.061Z,12.90
2019-02-24T18:36:12.076Z,12.00
2019-02-24T18:46:51.811Z,8.07
2019-02-24T19:03:33.918Z,8.57
2019-02-24T19:07:01.367Z,9.37
2019-02-24T19:09:49.338Z,8.90
2019-02-24T19:21:53.845Z,9.70
2019-02-24T19:24:28.241Z,6.50
2019-02-24T20:01:35.982Z,16.20
2019-02-24T20:04:17.371Z,11.37
2019-02-24T20:07:01.217Z,9.33
2019-02-24T20:10:50.745Z,6.23
2019-02-24T20:17:12.680Z,10.17
2019-02-24T20:20:09.185Z,8.90
2019-02-24T20:26:38.005Z,11.47
2019-02-24T20:29:46.851Z,9.00
2019-02-24T20:32:40.414Z,10.37
2019-02-24T20:35:58.188Z,8.33
2019-02-24T20:44:09.762Z,11.47
2019-02-24T21:28:21.273Z,7.43
2019-02-24T21:30:50.616Z,8.10
2019-02-24T21:33:29.547Z,10.67
2019-02-24T21:39:29.456Z,8.87
2019-02-24T22:13:03.303Z,8.93
2019-02-24T22:15:40.156Z,6.73
2019-02-24T22:18:18.186Z,11.17
2019-02-24T22:20:54.858Z,10.97
2019-02-24T22:26:56.577Z,8.63
2019-02-24T22:35:20.652Z,8.60
2019-02-24T22:37:54.056Z,8.37
2019-02-24T22:50:21.897Z,9.17
2019-02-24T22:56:22.603Z,8.47
2019-02-24T23:05:16.504Z,7.67
2019-02-24T23:14:07.530Z,7.33
2019-02-24T23:16:44.524Z,10.30
2019-02-24T23:25:14.164Z,10.10
2019-02-24T23:43:47.756Z,4.13
2019-02-24T23:50:25.988Z,7.30
2019-02-24T23:56:04.945Z,8.53
